Time;durP1;ratioP1;P1;durP2;ratioP2;P2;SDS_P1;SDS_P2;PMS_P1;PMS_P2;Temp;Humidity;BMP_temperature;BMP_pressure;BME280_temperature;BME280_humidity;BME280_pressure;Samples;Min_cycle;Max_cycle;Signal;HPM_P1;HPM_P2
2022/02/24 00:00:40;;;;;;;17.05;4.50;;;;;;;11.98;65.35;101370.53;5007436;28;20049;-66
2022/02/24 00:03:08;;;;;;;15.75;5.10;;;;;;;11.79;66.02;101377.25;5009795;28;20042;-66
2022/02/24 00:05:35;;;;;;;16.08;4.63;;;;;;;11.90;65.68;101371.25;5009995;28;20053;-66
2022/02/24 00:08:03;;;;;;;16.80;6.05;;;;;;;12.05;65.16;101361.84;5008219;28;20041;-65
2022/02/24 00:10:30;;;;;;;17.15;6.30;;;;;;;12.05;65.36;101356.31;5007334;28;20057;-65
2022/02/24 00:12:57;;;;;;;17.50;6.80;;;;;;;11.94;65.49;101354.91;5009546;28;20042;-66
2022/02/24 00:15:25;;;;;;;17.38;6.30;;;;;;;12.00;65.52;101354.47;5011771;28;20053;-66
2022/02/24 00:17:52;;;;;;;17.70;6.38;;;;;;;12.04;65.53;101346.41;5010133;28;20056;-65
2022/02/24 00:20:19;;;;;;;26.48;8.00;;;;;;;11.96;65.77;101349.91;5010444;28;20058;-66
2022/02/24 00:22:47;;;;;;;19.13;6.85;;;;;;;11.94;66.43;101338.34;5010243;28;20045;-65
2022/02/24 00:25:14;;;;;;;19.73;6.63;;;;;;;11.94;66.08;101352.94;5011844;28;20050;-65
2022/02/24 00:27:42;;;;;;;18.52;6.57;;;;;;;11.94;66.10;101339.13;5004284;28;20057;-66
2022/02/24 00:30:10;;;;;;;16.15;5.80;;;;;;;11.98;65.93;101340.16;5008705;28;20053;-66
2022/02/24 00:32:37;;;;;;;20.35;6.32;;;;;;;11.81;66.57;101334.44;5007395;28;20030;-65
2022/02/24 00:35:05;;;;;;;17.38;5.80;;;;;;;11.81;66.72;101344.66;5010591;28;20046;-65
2022/02/24 00:37:33;;;;;;;18.70;5.90;;;;;;;11.98;66.36;101342.09;5008043;28;20076;-65
2022/02/24 00:40:00;;;;;;;23.83;6.38;;;;;;;12.15;66.05;101328.50;5010876;28;20054;-65
2022/02/24 00:42:28;;;;;;;21.08;6.45;;;;;;;12.21;65.64;101324.50;5007717;28;20520;-67
2022/02/24 00:44:55;;;;;;;16.20;6.22;;;;;;;12.10;66.04;101321.13;5006436;28;20046;-66
2022/02/24 00:47:24;;;;;;;22.20;6.30;;;;;;;11.99;66.41;101318.91;5008201;28;20053;-65
2022/02/24 00:49:51;;;;;;;20.92;6.50;;;;;;;11.73;67.51;101324.13;5009043;28;20053;-66
2022/02/24 00:52:18;;;;;;;19.92;6.53;;;;;;;11.82;67.26;101314.00;5003318;28;20058;-67
2022/02/24 00:54:48;;;;;;;20.90;6.47;;;;;;;11.96;67.43;101316.75;5009699;28;20054;-65
2022/02/24 00:57:17;;;;;;;17.10;6.25;;;;;;;12.04;66.64;101305.81;5007613;28;20057;-65
2022/02/24 00:59:44;;;;;;;17.90;5.93;;;;;;;11.72;67.70;101294.88;5007391;28;20400;-65
2022/02/24 01:02:11;;;;;;;19.67;6.60;;;;;;;12.04;67.19;101297.53;5006020;28;20544;-65
2022/02/24 01:04:39;;;;;;;18.17;5.53;;;;;;;11.83;67.54;101301.84;5007818;28;20049;-65
2022/02/24 01:07:06;;;;;;;16.48;6.05;;;;;;;11.89;67.52;101291.50;5009502;28;20052;-65
2022/02/24 01:09:34;;;;;;;18.08;6.43;;;;;;;11.79;67.75;101283.44;5008707;28;20418;-65
2022/02/24 01:12:01;;;;;;;15.55;5.30;;;;;;;11.83;67.71;101279.75;5007098;28;20041;-66
2022/02/24 01:14:28;;;;;;;16.35;5.63;;;;;;;11.73;67.91;101276.41;5022490;28;20071;-65
2022/02/24 01:16:56;;;;;;;14.55;5.43;;;;;;;11.68;68.38;101285.56;5010031;28;20278;-66
2022/02/24 01:19:23;;;;;;;18.67;5.40;;;;;;;12.03;67.33;101284.84;5005905;28;20049;-66
2022/02/24 01:21:51;;;;;;;17.20;5.22;;;;;;;11.97;67.66;101276.97;5007656;28;20072;-67
2022/02/24 01:24:18;;;;;;;14.57;5.38;;;;;;;11.93;67.37;101278.72;5006854;28;20200;-66
2022/02/24 01:26:45;;;;;;;20.85;5.65;;;;;;;11.93;67.78;101282.28;5007301;28;20046;-65
2022/02/24 01:29:13;;;;;;;16.40;5.57;;;;;;;11.85;67.64;101271.16;5004859;28;20073;-65
2022/02/24 01:31:40;;;;;;;19.25;5.65;;;;;;;11.59;68.86;101272.78;5002825;28;20050;-65
2022/02/24 01:34:07;;;;;;;20.10;6.22;;;;;;;11.55;69.53;101269.81;5005877;28;20053;-66
2022/02/24 01:36:35;;;;;;;22.15;5.70;;;;;;;11.73;68.82;101271.69;5012895;28;20045;-65
2022/02/24 01:39:03;;;;;;;13.38;5.25;;;;;;;11.92;67.93;101264.13;5010115;28;20042;-66
2022/02/24 01:41:30;;;;;;;15.35;5.85;;;;;;;11.80;68.69;101268.50;5006581;28;20069;-66
2022/02/24 01:44:07;;;;;;;20.55;5.53;;;;;;;11.65;69.60;101260.53;5009638;28;20047;-65
2022/02/24 01:46:36;;;;;;;21.63;6.28;;;;;;;11.67;70.15;101269.31;5009902;28;20045;-66
2022/02/24 01:49:05;;;;;;;20.58;6.03;;;;;;;11.62;69.93;101266.66;5008991;28;20593;-66
2022/02/24 01:51:36;;;;;;;20.92;6.50;;;;;;;11.59;70.56;101273.63;5018471;28;20054;-65
2022/02/24 01:54:05;;;;;;;20.85;5.97;;;;;;;11.66;71.05;101275.97;5004983;28;20046;-65
2022/02/24 01:56:33;;;;;;;17.30;6.00;;;;;;;11.64;71.46;101239.56;5008942;28;20049;-65
2022/02/24 01:59:00;;;;;;;18.17;6.45;;;;;;;11.50;72.32;101224.97;5007428;28;20121;-65
2022/02/24 02:01:31;;;;;;;18.70;5.22;;;;;;;11.41;72.70;101205.56;5008912;28;20058;-65
2022/02/24 02:03:59;;;;;;;17.65;5.30;;;;;;;11.62;71.68;101225.25;5003627;28;20046;-66
2022/02/24 02:06:26;;;;;;;17.15;5.63;;;;;;;11.37;72.17;101218.31;5003517;28;20670;-66
2022/02/24 02:08:54;;;;;;;17.58;5.65;;;;;;;11.08;72.90;101220.56;5009118;28;20046;-65
2022/02/24 02:11:21;;;;;;;18.48;5.47;;;;;;;10.91;73.29;101223.09;5003698;28;20516;-66
2022/02/24 02:13:48;;;;;;;15.07;5.05;;;;;;;11.05;73.18;101226.69;5007852;28;20038;-64
2022/02/24 02:16:16;;;;;;;24.55;7.07;;;;;;;11.13;72.60;101214.94;5008525;28;20042;-66
2022/02/24 02:18:43;;;;;;;17.42;5.88;;;;;;;11.03;73.28;101207.69;5006802;28;20050;-66
2022/02/24 02:21:10;;;;;;;18.10;5.28;;;;;;;11.03;73.33;101199.44;5020442;28;20058;-69
2022/02/24 02:23:38;;;;;;;16.23;4.97;;;;;;;11.10;72.68;101196.25;5005897;28;20046;-66
2022/02/24 02:26:06;;;;;;;17.42;5.13;;;;;;;11.13;72.44;101195.63;5009160;28;20448;-67
2022/02/24 02:28:33;;;;;;;16.75;4.53;;;;;;;11.01;72.06;101198.06;5007703;28;20054;-67
2022/02/24 02:31:00;;;;;;;15.82;5.18;;;;;;;10.93;72.64;101198.78;5012630;28;20497;-67
2022/02/24 02:33:28;;;;;;;20.42;5.15;;;;;;;10.85;72.98;101205.00;5012203;28;20038;-66
2022/02/24 02:35:56;;;;;;;17.65;5.40;;;;;;;11.09;72.58;101198.19;5011442;28;20049;-66
2022/02/24 02:38:23;;;;;;;16.77;4.75;;;;;;;10.82;73.17;101195.41;5011719;28;20054;-66
2022/02/24 02:40:50;;;;;;;14.45;4.72;;;;;;;10.89;72.96;101183.97;5010467;28;20053;-66
2022/02/24 02:43:18;;;;;;;18.25;4.68;;;;;;;10.88;73.15;101188.66;5011311;28;20050;-67
2022/02/24 02:45:48;;;;;;;16.65;5.00;;;;;;;11.17;72.37;101180.97;5011037;28;20050;-67
2022/02/24 02:48:15;;;;;;;21.13;5.63;;;;;;;10.94;73.17;101187.47;5009198;28;20053;-67
2022/02/24 02:50:43;;;;;;;20.08;5.45;;;;;;;11.16;72.89;101178.47;5011411;28;20042;-67
2022/02/24 02:53:10;;;;;;;17.55;5.00;;;;;;;11.10;72.84;101183.31;5011501;28;20773;-67
2022/02/24 02:55:38;;;;;;;20.05;5.25;;;;;;;10.68;74.49;101174.44;5011939;28;20623;-66
2022/02/24 02:58:05;;;;;;;18.10;5.32;;;;;;;10.87;73.70;101172.44;5008845;28;20061;-65
2022/02/24 03:00:33;;;;;;;20.88;5.90;;;;;;;10.76;74.19;101168.22;5009789;28;20052;-66
2022/02/24 03:03:00;;;;;;;17.40;4.75;;;;;;;10.67;74.85;101165.34;5008006;28;20050;-67
2022/02/24 03:05:28;;;;;;;21.45;5.22;;;;;;;10.71;74.79;101163.63;5009390;28;20408;-67
2022/02/24 03:07:55;;;;;;;15.50;4.82;;;;;;;10.86;74.32;101155.06;5005399;28;20048;-66
2022/02/24 03:10:22;;;;;;;15.50;5.75;;;;;;;10.95;73.93;101149.66;5007349;28;20170;-66
2022/02/24 03:12:50;;;;;;;16.25;5.28;;;;;;;11.03;73.56;101144.28;5007858;28;20050;-66
2022/02/24 03:15:18;;;;;;;22.10;5.22;;;;;;;11.09;72.51;101137.53;5005323;28;20038;-66
2022/02/24 03:17:47;;;;;;;15.37;5.10;;;;;;;11.08;72.37;101138.69;5009435;28;20050;-67
2022/02/24 03:20:15;;;;;;;22.35;5.70;;;;;;;11.06;72.27;101142.84;5008322;28;20061;-68
2022/02/24 03:22:44;;;;;;;19.52;5.43;;;;;;;10.86;72.77;101138.53;5010712;28;20049;-66
2022/02/24 03:25:11;;;;;;;18.58;5.22;;;;;;;10.79;72.94;101140.88;5008011;28;20041;-66
2022/02/24 03:27:39;;;;;;;19.83;5.22;;;;;;;11.09;71.47;101145.81;5008809;28;20050;-66
2022/02/24 03:30:06;;;;;;;18.58;5.82;;;;;;;10.91;72.06;101132.13;4979390;28;20054;-67
2022/02/24 03:32:34;;;;;;;20.98;5.20;;;;;;;10.86;71.75;101133.03;5010460;28;20077;-66
2022/02/24 03:35:03;;;;;;;17.10;4.45;;;;;;;10.79;71.42;101124.34;5011337;28;20053;-66
2022/02/24 03:37:30;;;;;;;23.58;5.70;;;;;;;10.73;71.85;101133.03;5006433;28;20049;-66
2022/02/24 03:39:57;;;;;;;18.25;5.60;;;;;;;10.87;71.37;101120.91;5011076;28;20057;-66
2022/02/24 03:42:25;;;;;;;18.35;5.65;;;;;;;10.94;71.68;101123.25;5007081;28;20077;-66
2022/02/24 03:44:52;;;;;;;20.15;5.03;;;;;;;11.01;71.27;101130.00;5010541;28;20485;-66
2022/02/24 03:47:22;;;;;;;19.98;6.03;;;;;;;11.05;70.96;101119.97;5009547;28;20046;-66
2022/02/24 03:49:50;;;;;;;;;;;;;;;11.02;70.78;101117.84;5005269;28;20057;-66
2022/02/24 03:52:18;;;;;;;19.92;5.13;;;;;;;10.87;71.45;101104.38;5010964;28;19929;-66
2022/02/24 03:54:46;;;;;;;19.67;5.63;;;;;;;11.04;71.30;101103.75;5006642;28;20049;-66
2022/02/24 03:57:20;;;;;;;19.17;5.82;;;;;;;11.00;71.78;101094.47;5003929;28;20061;-65
2022/02/24 03:59:47;;;;;;;20.02;5.40;;;;;;;10.91;72.35;101091.59;5008420;28;20046;-66
2022/02/24 04:02:15;;;;;;;17.90;5.82;;;;;;;10.85;73.01;101092.00;5004957;28;20053;-66
2022/02/24 04:04:43;;;;;;;23.35;6.10;;;;;;;10.96;71.97;101094.28;5009426;28;20050;-67
2022/02/24 04:07:11;;;;;;;18.15;5.05;;;;;;;10.80;72.00;101087.44;5022861;28;20053;-65
2022/02/24 04:09:38;;;;;;;13.75;5.53;;;;;;;10.77;71.73;101093.56;5005589;28;20050;-66
2022/02/24 04:12:15;;;;;;;20.58;5.05;;;;;;;10.84;71.02;101084.88;5009839;28;20485;-67
2022/02/24 04:14:44;;;;;;;15.18;3.85;;;;;;;10.67;70.94;101082.72;5006023;28;20045;-67
2022/02/24 04:17:14;;;;;;;12.00;4.35;;;;;;;10.79;70.64;101082.22;5009813;28;20049;-66
2022/02/24 04:19:41;;;;;;;16.02;5.00;;;;;;;10.86;70.32;101079.88;5010648;28;20054;-66
2022/02/24 04:22:08;;;;;;;15.10;4.50;;;;;;;10.83;69.93;101081.28;5007933;28;20051;-66
2022/02/24 04:24:36;;;;;;;16.27;4.40;;;;;;;10.93;69.44;101072.81;5006091;28;20046;-65
2022/02/24 04:27:03;;;;;;;17.45;4.32;;;;;;;10.77;69.47;101076.19;5008580;28;20080;-66
2022/02/24 04:29:31;;;;;;;17.17;4.63;;;;;;;10.77;69.23;101065.19;4991242;28;20054;-66
2022/02/24 04:31:58;;;;;;;15.02;3.83;;;;;;;10.79;68.83;101072.00;5007277;28;20053;-66
2022/02/24 04:34:26;;;;;;;13.27;4.93;;;;;;;10.82;68.85;101071.41;5007376;28;20046;-68
2022/02/24 04:36:53;;;;;;;12.90;3.58;;;;;;;10.74;68.55;101071.31;5010025;28;20042;-67
2022/02/24 04:39:21;;;;;;;16.90;3.97;;;;;;;10.71;68.62;101074.66;5010998;28;20058;-67
2022/02/24 04:41:48;;;;;;;17.58;4.20;;;;;;;10.64;68.68;101077.81;5012056;28;20065;-66
2022/02/24 04:44:15;;;;;;;16.67;3.15;;;;;;;10.75;68.17;101072.94;5006503;28;20061;-66
2022/02/24 04:46:43;;;;;;;16.30;3.42;;;;;;;10.78;67.91;101080.56;5005888;28;20436;-66
2022/02/24 04:49:10;;;;;;;15.60;4.15;;;;;;;10.69;67.83;101068.63;5008867;28;20057;-66
2022/02/24 04:51:38;;;;;;;15.70;4.25;;;;;;;10.65;67.84;101065.66;5006856;28;20046;-66
2022/02/24 04:54:05;;;;;;;14.00;3.70;;;;;;;10.74;67.50;101068.56;5008857;28;20057;-66
2022/02/24 04:56:41;;;;;;;16.20;4.22;;;;;;;10.75;67.39;101068.25;5007470;28;21574;-67
2022/02/24 04:59:12;;;;;;;12.52;3.33;;;;;;;10.53;67.29;101070.06;5008914;28;20046;-66
2022/02/24 05:01:40;;;;;;;14.98;4.45;;;;;;;10.58;66.65;101058.94;5012522;28;20045;-66
2022/02/24 05:04:07;;;;;;;11.90;3.30;;;;;;;10.80;66.45;101064.56;5008527;28;20057;-66
2022/02/24 05:06:35;;;;;;;19.75;5.32;;;;;;;10.54;66.79;101061.50;5004698;28;20050;-66
2022/02/24 05:09:02;;;;;;;15.85;3.65;;;;;;;10.42;67.02;101061.19;5008858;28;20050;-66
2022/02/24 05:11:30;;;;;;;17.17;3.75;;;;;;;10.31;67.31;101058.91;5006752;28;20050;-66
2022/02/24 05:13:57;;;;;;;14.23;3.22;;;;;;;10.32;66.91;101050.31;5008574;28;20050;-66
2022/02/24 05:16:25;;;;;;;13.00;3.60;;;;;;;10.34;66.99;101050.06;5007795;28;20603;-66
2022/02/24 05:18:52;;;;;;;18.65;4.28;;;;;;;10.41;66.72;101039.44;5007824;28;20053;-66
2022/02/24 05:21:22;;;;;;;15.10;3.58;;;;;;;10.28;66.65;101043.81;5009291;28;20062;-66
2022/02/24 05:23:51;;;;;;;14.77;3.67;;;;;;;10.33;66.49;101040.97;5006713;28;20489;-67
2022/02/24 05:26:19;;;;;;;16.00;4.00;;;;;;;10.29;66.46;101052.91;5004149;28;20046;-67
2022/02/24 05:28:46;;;;;;;18.15;3.20;;;;;;;10.57;65.83;101040.78;5009550;28;20046;-66
2022/02/24 05:31:14;;;;;;;15.70;4.05;;;;;;;10.42;65.58;101041.06;5008217;28;20073;-67
2022/02/24 05:33:41;;;;;;;13.35;3.65;;;;;;;10.44;65.80;101036.91;5004885;28;20050;-66
2022/02/24 05:36:08;;;;;;;13.15;3.58;;;;;;;10.15;66.33;101033.59;5007598;28;20046;-66
2022/02/24 05:38:36;;;;;;;15.38;3.92;;;;;;;10.19;66.14;101040.13;5005616;28;20077;-66
2022/02/24 05:41:03;;;;;;;19.17;4.03;;;;;;;10.14;66.30;101034.72;5009162;28;20061;-66
2022/02/24 05:43:31;;;;;;;16.23;4.50;;;;;;;10.05;66.27;101033.75;5006240;28;20394;-67
2022/02/24 05:45:58;;;;;;;19.27;3.70;;;;;;;9.98;66.79;101041.56;5004906;28;20049;-65
2022/02/24 05:48:25;;;;;;;12.15;3.72;;;;;;;10.11;66.46;101040.81;5006023;28;20041;-67
2022/02/24 05:50:53;;;;;;;15.40;3.92;;;;;;;10.23;66.12;101043.09;5005127;28;20069;-66
2022/02/24 05:53:20;;;;;;;23.63;5.18;;;;;;;10.04;66.27;101034.88;5008252;28;20054;-67
2022/02/24 05:55:47;;;;;;;17.30;4.18;;;;;;;9.88;66.51;101039.00;5005357;28;20050;-66
2022/02/24 05:58:15;;;;;;;12.63;3.38;;;;;;;9.94;66.92;101032.28;5004510;28;20050;-66
2022/02/24 06:00:42;;;;;;;14.82;3.83;;;;;;;9.87;66.42;101038.16;5007584;28;20057;-67
2022/02/24 06:03:11;;;;;;;12.05;3.85;;;;;;;10.00;66.21;101029.16;5008962;28;20054;-67
2022/02/24 06:05:39;;;;;;;20.92;4.20;;;;;;;9.86;66.16;101031.03;5007077;28;20117;-66
2022/02/24 06:08:06;;;;;;;18.55;3.90;;;;;;;9.90;66.11;101036.75;5017951;28;20056;-67
2022/02/24 06:10:34;;;;;;;17.25;3.28;;;;;;;9.96;65.86;101025.34;5011210;28;20057;-68
2022/02/24 06:13:01;;;;;;;16.88;3.70;;;;;;;9.75;65.69;101021.31;5011960;28;20034;-67
2022/02/24 06:15:30;;;;;;;13.95;3.20;;;;;;;9.83;65.83;101012.38;5008463;28;20054;-67
2022/02/24 06:17:57;;;;;;;16.25;3.85;;;;;;;9.99;65.44;101015.66;5014269;28;20054;-67
2022/02/24 06:20:24;;;;;;;14.70;3.22;;;;;;;9.85;64.99;101025.84;5011521;28;20065;-67
2022/02/24 06:22:53;;;;;;;22.35;3.80;;;;;;;9.84;64.91;101019.53;5012379;28;20042;-67
2022/02/24 06:25:20;;;;;;;23.00;3.75;;;;;;;9.78;65.28;101011.66;5011093;28;20063;-66
2022/02/24 06:27:48;;;;;;;20.58;4.05;;;;;;;9.63;65.39;101020.97;5008822;28;20050;-67
2022/02/24 06:30:15;;;;;;;16.67;3.40;;;;;;;9.71;65.11;101014.78;5012241;28;20507;-67
2022/02/24 06:32:43;;;;;;;16.77;4.22;;;;;;;9.98;64.44;101001.13;5012428;28;20063;-66
2022/02/24 06:35:12;;;;;;;21.10;4.13;;;;;;;9.87;64.20;101001.56;5015353;28;20521;-68
2022/02/24 06:37:40;;;;;;;15.90;3.60;;;;;;;9.74;64.47;101003.19;5025232;28;20052;-67
2022/02/24 06:40:08;;;;;;;21.45;4.30;;;;;;;9.80;64.44;101007.47;5018680;28;20497;-67
2022/02/24 06:42:35;;;;;;;15.80;4.70;;;;;;;9.88;64.09;101008.72;5037997;28;20520;-66
2022/02/24 06:45:03;;;;;;;15.88;4.30;;;;;;;10.04;63.87;101021.09;5007200;28;20042;-66
2022/02/24 06:47:31;;;;;;;20.40;4.05;;;;;;;10.09;63.51;101013.59;5016807;28;20046;-66
2022/02/24 06:50:04;;;;;;;16.30;3.22;;;;;;;9.94;63.62;101015.75;5014307;28;20046;-66
2022/02/24 06:52:32;;;;;;;16.25;3.53;;;;;;;9.87;63.60;101020.84;5021936;28;20397;-68
2022/02/24 06:55:01;;;;;;;21.50;4.00;;;;;;;9.75;64.40;101021.31;5016787;28;20053;-66
2022/02/24 06:57:28;;;;;;;19.65;3.50;;;;;;;9.78;64.47;101026.22;5017449;28;20304;-67
2022/02/24 06:59:56;;;;;;;14.23;3.63;;;;;;;9.77;64.25;101016.34;5030382;28;20084;-66
2022/02/24 07:02:23;;;;;;;20.60;3.13;;;;;;;9.76;64.50;101022.94;5013114;28;20049;-67
2022/02/24 07:04:51;;;;;;;14.88;3.30;;;;;;;9.85;64.30;101020.34;5013359;28;20504;-67
2022/02/24 07:07:19;;;;;;;12.77;3.65;;;;;;;9.60;64.60;101018.00;5012709;28;20058;-66
2022/02/24 07:09:47;;;;;;;19.98;3.78;;;;;;;9.51;64.86;101019.78;5018805;28;20069;-66
2022/02/24 07:12:14;;;;;;;19.67;4.13;;;;;;;9.52;64.94;101018.69;5036163;28;20080;-66
2022/02/24 07:14:42;;;;;;;18.38;3.45;;;;;;;9.58;65.25;101009.22;5014659;28;20046;-65
2022/02/24 07:17:09;;;;;;;18.60;3.30;;;;;;;9.57;67.39;101011.16;4982195;28;20065;-68
2022/02/24 07:19:37;;;;;;;17.63;4.18;;;;;;;10.41;77.32;101023.72;5022270;28;20058;-64
2022/02/24 07:22:04;;;;;;;18.50;3.58;;;;;;;10.61;68.78;101033.53;5035811;28;20057;-66
2022/02/24 07:24:31;;;;;;;18.55;3.28;;;;;;;10.27;63.54;101020.13;5034117;28;20050;-65
2022/02/24 07:26:59;;;;;;;24.70;4.05;;;;;;;10.27;62.59;101031.16;5026409;28;20042;-66
2022/02/24 07:29:26;;;;;;;18.70;3.72;;;;;;;10.36;62.83;101029.34;5009559;28;20057;-67
2022/02/24 07:31:54;;;;;;;21.55;3.42;;;;;;;10.52;63.18;101029.84;5013181;28;20053;-64
2022/02/24 07:34:21;;;;;;;19.50;3.53;;;;;;;10.47;62.92;101033.53;5016243;28;20046;-64
2022/02/24 07:36:50;;;;;;;19.00;4.00;;;;;;;10.54;61.26;101022.94;5007234;28;20544;-64
2022/02/24 07:39:17;;;;;;;23.73;3.83;;;;;;;10.82;62.21;101021.81;4975065;28;20054;-64
2022/02/24 07:41:45;;;;;;;15.85;3.92;;;;;;;10.82;61.31;101023.72;5016756;28;20048;-64
2022/02/24 07:44:14;;;;;;;18.55;3.65;;;;;;;10.78;60.38;101020.78;5016120;28;20046;-64
2022/02/24 07:46:42;;;;;;;15.85;3.53;;;;;;;10.40;60.92;101016.59;5017352;28;20060;-63
2022/02/24 07:49:10;;;;;;;13.10;3.17;;;;;;;10.76;60.30;101024.94;5012879;28;20444;-64
2022/02/24 07:51:37;;;;;;;19.05;3.50;;;;;;;10.96;59.05;101013.50;5012186;28;20064;-64
2022/02/24 07:54:04;;;;;;;16.13;3.45;;;;;;;10.88;59.28;101022.53;4989768;28;20054;-64
2022/02/24 07:56:32;;;;;;;17.25;2.90;;;;;;;10.64;59.42;101028.22;5015112;28;20547;-66
2022/02/24 07:59:00;;;;;;;16.83;3.35;;;;;;;10.68;59.54;101006.41;5010420;28;20065;-68
2022/02/24 08:01:27;;;;;;;19.48;3.85;;;;;;;10.74;58.56;100999.66;5011540;28;20067;-68
2022/02/24 08:03:55;;;;;;;26.13;4.90;;;;;;;10.48;59.48;101010.38;5019432;28;20045;-68
2022/02/24 08:06:22;;;;;;;14.57;3.85;;;;;;;10.53;59.59;101012.22;5025642;28;20053;-67
2022/02/24 08:08:49;;;;;;;18.67;3.80;;;;;;;10.69;59.08;100997.00;5024212;28;20405;-68
2022/02/24 08:11:19;;;;;;;22.73;3.97;;;;;;;10.18;59.61;100999.97;5029952;28;20061;-67
2022/02/24 08:13:46;;;;;;;13.63;3.08;;;;;;;10.05;60.40;101000.72;5015962;28;20061;-67
2022/02/24 08:16:14;;;;;;;16.20;2.95;;;;;;;10.11;59.84;101014.09;5006634;28;20516;-67
2022/02/24 08:18:41;;;;;;;18.10;3.95;;;;;;;10.03;60.28;101008.44;5012813;28;20045;-68
2022/02/24 08:21:08;;;;;;;16.77;3.15;;;;;;;10.21;60.07;101002.09;5035703;28;20057;-67
2022/02/24 08:23:36;;;;;;;16.30;3.83;;;;;;;10.52;59.31;101005.06;5023762;28;20060;-67
2022/02/24 08:26:03;;;;;;;20.58;3.38;;;;;;;10.17;59.48;101003.81;5024277;28;20052;-67
2022/02/24 08:28:31;;;;;;;18.52;2.88;;;;;;;10.06;60.40;101003.16;5032237;28;20096;-67
2022/02/24 08:30:58;;;;;;;15.57;3.85;;;;;;;10.16;60.62;101003.00;5009784;28;20073;-67
2022/02/24 08:33:25;;;;;;;14.48;3.15;;;;;;;10.00;60.76;100992.56;5024388;28;20417;-68
2022/02/24 08:35:53;;;;;;;20.17;3.20;;;;;;;10.22;60.57;100997.41;5028510;28;20397;-67
2022/02/24 08:38:21;;;;;;;15.60;3.30;;;;;;;10.29;60.06;100993.13;5014045;28;20050;-66
2022/02/24 08:40:48;;;;;;;16.88;4.70;;;;;;;10.48;59.74;100995.81;5013036;28;20045;-67
2022/02/24 08:43:16;;;;;;;21.10;3.80;;;;;;;10.54;59.69;100997.31;5012974;28;20046;-66
2022/02/24 08:45:44;;;;;;;18.30;3.70;;;;;;;10.61;60.00;100990.28;5014512;28;20315;-65
2022/02/24 08:48:12;;;;;;;18.73;3.45;;;;;;;10.54;59.54;100978.03;5015058;28;20046;-66
2022/02/24 08:50:40;;;;;;;16.88;3.40;;;;;;;10.64;59.64;100984.16;5018827;28;20050;-66
2022/02/24 08:53:19;;;;;;;18.52;3.63;;;;;;;10.79;59.47;100972.81;5015744;28;20418;-66
2022/02/24 08:55:46;;;;;;;21.35;3.33;;;;;;;10.82;59.49;100985.16;5014888;28;20060;-66
2022/02/24 08:58:13;;;;;;;12.68;2.55;;;;;;;10.82;59.06;100976.91;5014294;28;20049;-68
2022/02/24 09:00:46;;;;;;;24.60;3.75;;;;;;;10.96;59.17;100992.28;5017887;28;20058;-68
2022/02/24 09:03:15;;;;;;;19.27;3.80;;;;;;;11.21;58.91;100974.34;5019446;28;20061;-70
2022/02/24 09:05:44;;;;;;;16.95;3.17;;;;;;;10.96;59.41;100988.72;5017507;28;20493;-69
2022/02/24 09:08:12;;;;;;;18.10;3.80;;;;;;;10.88;59.32;100993.00;5016197;28;20049;-71
2022/02/24 09:10:39;;;;;;;22.20;3.35;;;;;;;10.95;59.19;100989.81;5015047;28;20521;-69
2022/02/24 09:13:07;;;;;;;20.30;3.70;;;;;;;11.08;59.82;100989.81;5015016;28;20054;-69
2022/02/24 09:15:36;;;;;;;19.10;3.38;;;;;;;10.80;59.50;100990.97;5017755;28;20061;-69
2022/02/24 09:18:05;;;;;;;15.63;2.95;;;;;;;10.90;59.64;100996.28;5012750;28;20073;-68
2022/02/24 09:20:32;;;;;;;18.95;4.05;;;;;;;10.81;60.01;100995.34;5021719;28;20053;-69
2022/02/24 09:23:00;;;;;;;14.48;4.55;;;;;;;11.00;59.52;101006.28;5034468;28;20527;-69
2022/02/24 09:25:27;;;;;;;14.52;2.50;;;;;;;10.96;59.85;100999.72;5016852;28;20062;-69
2022/02/24 09:27:55;;;;;;;13.60;2.53;;;;;;;10.75;61.14;101002.13;5026961;28;20056;-70
2022/02/24 09:30:22;;;;;;;13.55;2.55;;;;;;;10.95;60.71;100998.09;5022965;28;20085;-69
2022/02/24 09:32:55;;;;;;;17.25;2.60;;;;;;;10.70;60.82;100999.47;5015982;28;20524;-69
2022/02/24 09:35:23;;;;;;;13.35;2.40;;;;;;;10.59;61.79;100992.53;5002003;28;20056;-70
2022/02/24 09:37:51;;;;;;;17.30;2.88;;;;;;;10.77;63.20;100988.03;5008748;28;20038;-69
2022/02/24 09:40:18;;;;;;;9.38;2.50;;;;;;;10.77;61.73;100999.03;5010356;28;20057;-69
2022/02/24 09:43:06;;;;;;;18.33;2.72;;;;;;;11.11;61.40;100989.19;5007199;28;20065;-68
2022/02/24 09:45:34;;;;;;;13.35;2.88;;;;;;;11.22;60.65;100973.22;4999302;28;20425;-69
2022/02/24 09:48:05;;;;;;;12.90;2.05;;;;;;;10.97;60.86;100980.13;4996200;28;20031;-69
2022/02/24 09:50:33;;;;;;;12.27;2.63;;;;;;;11.05;60.92;100964.81;5000993;28;20535;-70
2022/02/24 09:53:04;;;;;;;12.38;2.78;;;;;;;11.16;60.55;100958.72;5002211;28;20524;-69
2022/02/24 09:55:31;;;;;;;16.42;2.67;;;;;;;11.40;60.21;100955.69;5012493;28;20049;-69
2022/02/24 09:57:58;;;;;;;12.15;2.80;;;;;;;11.39;59.06;100956.81;5008229;28;20053;-70
2022/02/24 10:00:26;;;;;;;11.43;3.70;;;;;;;11.30;59.05;100964.19;5017506;28;20049;-69
2022/02/24 10:02:53;;;;;;;15.07;3.00;;;;;;;11.20;58.81;100956.16;5014642;28;20058;-69
2022/02/24 10:05:22;;;;;;;17.48;2.97;;;;;;;11.52;57.96;100953.19;5016779;28;20042;-70
2022/02/24 10:07:52;;;;;;;14.07;2.67;;;;;;;11.72;57.79;100944.41;5013425;28;20046;-70
2022/02/24 10:10:27;;;;;;;8.35;2.53;;;;;;;11.61;57.69;100931.97;5022304;28;20053;-69
2022/02/24 10:13:07;;;;;;;16.67;2.65;;;;;;;11.50;58.06;100938.06;5013435;28;20049;-70
2022/02/24 10:15:36;;;;;;;;;;;;;;;11.55;57.52;100930.50;5012315;28;20153;-66
2022/02/24 10:18:11;;;;;;;17.67;3.17;;;;;;;11.45;58.44;100925.22;5012782;28;19965;-69
2022/02/24 10:20:49;;;;;;;11.05;2.70;;;;;;;11.52;58.87;100936.66;5024135;28;20050;-69
2022/02/24 10:23:17;;;;;;;14.63;2.90;;;;;;;11.92;58.51;100945.84;5014298;28;20057;-71
2022/02/24 10:25:46;;;;;;;10.75;2.40;;;;;;;13.07;56.50;100939.72;5014046;28;20053;-65
2022/02/24 10:28:27;;;;;;;12.95;2.25;;;;;;;12.43;56.04;100941.34;5016069;28;20073;-65
2022/02/24 10:30:55;;;;;;;14.43;2.63;;;;;;;12.37;55.54;100936.28;5006888;28;20407;-67
2022/02/24 10:33:27;;;;;;;17.67;3.53;;;;;;;12.36;55.71;100938.22;5002226;28;20060;-67
2022/02/24 10:36:16;;;;;;;17.30;2.85;;;;;;;12.41;55.53;100945.56;5014975;28;20416;-68
2022/02/24 10:38:59;;;;;;;8.45;2.53;;;;;;;12.57;54.84;100943.97;5011646;28;20054;-67
2022/02/24 10:41:45;;;;;;;13.38;2.78;;;;;;;12.34;56.37;100945.22;5012240;28;20049;-67
2022/02/24 10:44:33;;;;;;;15.65;2.75;;;;;;;12.41;56.22;100953.84;5001614;28;20057;-67
2022/02/24 10:47:03;;;;;;;12.35;2.25;;;;;;;12.40;56.68;100953.03;5026329;28;20074;-69
2022/02/24 10:49:35;;;;;;;;;;;;;;;12.44;56.31;100950.44;5016787;28;20058;-67
2022/02/24 10:52:16;;;;;;;13.15;2.67;;;;;;;12.41;56.80;100951.88;5026450;28;19936;-68
2022/02/24 10:54:55;;;;;;;13.15;2.70;;;;;;;12.21;57.02;100940.59;5033193;28;20057;-67
2022/02/24 10:57:26;;;;;;;16.33;2.35;;;;;;;12.28;57.56;100941.78;5013008;28;20308;-68
2022/02/24 10:59:54;;;;;;;;;;;;;;;12.24;57.35;100931.69;5009490;28;20053;-67
2022/02/24 11:02:23;;;;;;;12.20;2.60;;;;;;;12.24;57.27;100935.25;5006649;28;19928;-69
2022/02/24 11:04:52;;;;;;;11.32;2.45;;;;;;;12.48;57.22;100921.06;5009171;28;20420;-68
2022/02/24 11:07:20;;;;;;;13.48;2.90;;;;;;;12.55;56.33;100913.09;5011608;28;20054;-68
2022/02/24 11:09:49;;;;;;;8.50;2.70;;;;;;;12.28;57.40;100905.06;5018416;28;20045;-68
2022/02/24 11:12:22;;;;;;;12.53;2.43;;;;;;;12.53;57.22;100892.44;5026711;28;20076;-68
2022/02/24 11:14:50;;;;;;;12.32;2.88;;;;;;;12.51;57.75;100901.06;5025895;28;20061;-68
2022/02/24 11:17:20;;;;;;;28.40;8.93;;;;;;;12.63;57.03;100889.38;4999816;28;20085;-68
2022/02/24 11:19:47;;;;;;;17.05;6.90;;;;;;;12.25;57.55;100887.19;5034599;28;20072;-67
2022/02/24 11:22:15;;;;;;;12.73;4.53;;;;;;;12.40;57.41;100864.63;5017646;28;20658;-67
2022/02/24 11:24:42;;;;;;;12.30;3.05;;;;;;;12.16;57.96;100872.53;5027510;28;20058;-67